sensor_id;sensor_type;location;lat;lon;timestamp;pressure;altitude;pressure_sealevel;temperature;humidity
6395;BME280;3230;42.588;23.358;2024-02-14T00:01:05;90632.13;;;2.86;100.00
6395;BME280;3230;42.588;23.358;2024-02-14T00:03:34;90652.13;;;2.91;100.00
6395;BME280;3230;42.588;23.358;2024-02-14T00:05:59;90658.63;;;2.93;100.00
6395;BME280;3230;42.588;23.358;2024-02-14T00:08:25;90663.81;;;2.93;100.00
6395;BME280;3230;42.588;23.358;2024-02-14T00:10:50;90666.25;;;3.00;100.00
6395;BME280;3230;42.588;23.358;2024-02-14T00:13:16;90671.94;;;3.02;100.00
6395;BME280;3230;42.588;23.358;2024-02-14T00:15:43;90659.19;;;2.95;100.00
6395;BME280;3230;42.588;23.358;2024-02-14T00:18:10;90680.22;;;2.99;100.00
6395;BME280;3230;42.588;23.358;2024-02-14T00:20:38;90676.59;;;3.00;100.00
6395;BME280;3230;42.588;23.358;2024-02-14T00:23:06;90684.91;;;3.02;100.00
6395;BME280;3230;42.588;23.358;2024-02-14T00:25:32;90682.31;;;3.02;100.00
6395;BME280;3230;42.588;23.358;2024-02-14T00:27:57;90685.75;;;3.08;100.00
6395;BME280;3230;42.588;23.358;2024-02-14T00:30:26;90666.31;;;2.88;100.00
6395;BME280;3230;42.588;23.358;2024-02-14T00:32:51;90677.13;;;3.02;100.00
6395;BME280;3230;42.588;23.358;2024-02-14T00:35:17;90698.31;;;3.16;100.00
6395;BME280;3230;42.588;23.358;2024-02-14T00:37:42;90651.03;;;2.86;100.00
6395;BME280;3230;42.588;23.358;2024-02-14T00:40:08;90687.47;;;3.02;100.00
6395;BME280;3230;42.588;23.358;2024-02-14T00:42:34;90693.84;;;3.11;100.00
6395;BME280;3230;42.588;23.358;2024-02-14T00:44:59;90675.03;;;3.16;100.00
6395;BME280;3230;42.588;23.358;2024-02-14T00:47:25;90683.50;;;3.11;100.00
6395;BME280;3230;42.588;23.358;2024-02-14T00:49:50;90680.28;;;3.04;100.00
6395;BME280;3230;42.588;23.358;2024-02-14T00:52:17;90689.75;;;3.15;100.00
6395;BME280;3230;42.588;23.358;2024-02-14T00:54:42;90690.06;;;3.19;100.00
6395;BME280;3230;42.588;23.358;2024-02-14T00:57:07;90667.56;;;3.02;100.00
6395;BME280;3230;42.588;23.358;2024-02-14T00:59:33;90703.09;;;3.24;100.00
6395;BME280;3230;42.588;23.358;2024-02-14T01:01:58;90691.31;;;3.16;100.00
6395;BME280;3230;42.588;23.358;2024-02-14T01:04:24;90701.22;;;3.19;100.00
6395;BME280;3230;42.588;23.358;2024-02-14T01:06:50;90682.41;;;3.07;100.00
6395;BME280;3230;42.588;23.358;2024-02-14T01:09:18;90693.06;;;3.11;100.00
6395;BME280;3230;42.588;23.358;2024-02-14T01:11:43;90688.03;;;3.04;100.00
6395;BME280;3230;42.588;23.358;2024-02-14T01:14:09;90706.09;;;3.16;100.00
6395;BME280;3230;42.588;23.358;2024-02-14T01:16:42;90697.06;;;3.18;100.00
6395;BME280;3230;42.588;23.358;2024-02-14T01:19:08;90674.63;;;3.07;100.00
6395;BME280;3230;42.588;23.358;2024-02-14T01:21:33;90686.25;;;3.04;100.00
6395;BME280;3230;42.588;23.358;2024-02-14T01:23:58;90688.72;;;3.16;100.00
6395;BME280;3230;42.588;23.358;2024-02-14T01:26:24;90697.13;;;3.24;100.00
6395;BME280;3230;42.588;23.358;2024-02-14T01:28:49;90668.91;;;3.05;100.00
6395;BME280;3230;42.588;23.358;2024-02-14T01:31:15;90691.41;;;3.22;100.00
6395;BME280;3230;42.588;23.358;2024-02-14T01:33:40;90680.91;;;3.11;100.00
6395;BME280;3230;42.588;23.358;2024-02-14T01:36:06;90702.63;;;3.10;100.00
6395;BME280;3230;42.588;23.358;2024-02-14T01:38:31;90682.09;;;3.20;100.00
6395;BME280;3230;42.588;23.358;2024-02-14T01:41:01;90669.78;;;2.94;100.00
6395;BME280;3230;42.588;23.358;2024-02-14T01:43:28;90663.47;;;3.07;100.00
6395;BME280;3230;42.588;23.358;2024-02-14T01:45:53;90679.88;;;3.12;100.00
6395;BME280;3230;42.588;23.358;2024-02-14T01:48:18;90694.00;;;3.22;100.00
6395;BME280;3230;42.588;23.358;2024-02-14T01:50:44;90687.72;;;3.17;100.00
6395;BME280;3230;42.588;23.358;2024-02-14T01:53:11;90690.31;;;3.17;100.00
6395;BME280;3230;42.588;23.358;2024-02-14T01:55:36;90685.38;;;3.16;100.00
6395;BME280;3230;42.588;23.358;2024-02-14T01:58:02;90688.09;;;3.09;100.00
6395;BME280;3230;42.588;23.358;2024-02-14T02:00:30;90681.13;;;3.27;100.00
6395;BME280;3230;42.588;23.358;2024-02-14T02:02:56;90693.59;;;3.30;100.00
6395;BME280;3230;42.588;23.358;2024-02-14T02:05:22;90681.84;;;3.22;100.00
6395;BME280;3230;42.588;23.358;2024-02-14T02:07:48;90695.72;;;3.16;100.00
6395;BME280;3230;42.588;23.358;2024-02-14T02:10:14;90671.09;;;3.13;100.00
6395;BME280;3230;42.588;23.358;2024-02-14T02:12:40;90681.28;;;3.20;100.00
6395;BME280;3230;42.588;23.358;2024-02-14T02:15:07;90676.66;;;3.05;100.00
6395;BME280;3230;42.588;23.358;2024-02-14T02:17:36;90665.00;;;3.02;100.00
6395;BME280;3230;42.588;23.358;2024-02-14T02:20:02;90688.34;;;3.08;100.00
6395;BME280;3230;42.588;23.358;2024-02-14T02:22:27;90687.66;;;2.95;100.00
6395;BME280;3230;42.588;23.358;2024-02-14T02:24:57;90688.09;;;3.09;100.00
6395;BME280;3230;42.588;23.358;2024-02-14T02:27:22;90675.66;;;3.06;100.00
6395;BME280;3230;42.588;23.358;2024-02-14T02:29:48;90691.81;;;3.13;100.00
6395;BME280;3230;42.588;23.358;2024-02-14T02:32:13;90693.59;;;3.13;100.00
6395;BME280;3230;42.588;23.358;2024-02-14T02:34:40;90673.94;;;2.95;100.00
6395;BME280;3230;42.588;23.358;2024-02-14T02:37:05;90682.41;;;3.07;100.00
6395;BME280;3230;42.588;23.358;2024-02-14T02:39:34;90703.25;;;3.17;100.00
6395;BME280;3230;42.588;23.358;2024-02-14T02:42:02;90695.97;;;3.14;100.00
6395;BME280;3230;42.588;23.358;2024-02-14T02:44:28;90703.56;;;3.21;100.00
6395;BME280;3230;42.588;23.358;2024-02-14T02:46:53;90699.50;;;3.08;100.00
6395;BME280;3230;42.588;23.358;2024-02-14T02:49:19;90705.22;;;3.10;100.00
6395;BME280;3230;42.588;23.358;2024-02-14T02:51:44;90704.44;;;3.10;100.00
6395;BME280;3230;42.588;23.358;2024-02-14T02:54:09;90703.75;;;3.14;100.00
6395;BME280;3230;42.588;23.358;2024-02-14T02:56:36;90693.59;;;3.13;100.00
6395;BME280;3230;42.588;23.358;2024-02-14T02:59:02;90704.69;;;3.08;100.00
6395;BME280;3230;42.588;23.358;2024-02-14T03:01:28;90714.25;;;3.08;100.00
6395;BME280;3230;42.588;23.358;2024-02-14T03:03:59;90695.97;;;2.97;100.00
6395;BME280;3230;42.588;23.358;2024-02-14T03:06:25;90715.50;;;3.05;100.00
6395;BME280;3230;42.588;23.358;2024-02-14T03:08:52;90715.50;;;3.05;100.00
6395;BME280;3230;42.588;23.358;2024-02-14T03:11:19;90700.91;;;2.99;100.00
6395;BME280;3230;42.588;23.358;2024-02-14T03:13:44;90719.59;;;3.01;100.00
6395;BME280;3230;42.588;23.358;2024-02-14T03:16:09;90704.28;;;2.99;100.00
6395;BME280;3230;42.588;23.358;2024-02-14T03:18:36;90732.44;;;2.96;100.00
6395;BME280;3230;42.588;23.358;2024-02-14T03:21:03;90727.81;;;2.98;100.00
6395;BME280;3230;42.588;23.358;2024-02-14T03:23:31;90731.72;;;3.00;100.00
6395;BME280;3230;42.588;23.358;2024-02-14T03:25:57;90734.50;;;2.94;100.00
6395;BME280;3230;42.588;23.358;2024-02-14T03:28:22;90735.50;;;2.93;100.00
6395;BME280;3230;42.588;23.358;2024-02-14T03:30:48;90744.66;;;3.00;100.00
6395;BME280;3230;42.588;23.358;2024-02-14T03:33:14;90747.44;;;2.94;100.00
6395;BME280;3230;42.588;23.358;2024-02-14T03:35:40;90726.31;;;2.85;100.00
6395;BME280;3230;42.588;23.358;2024-02-14T03:38:06;90744.28;;;2.92;100.00
6395;BME280;3230;42.588;23.358;2024-02-14T03:40:34;90763.03;;;2.99;100.00
6395;BME280;3230;42.588;23.358;2024-02-14T03:43:01;90745.53;;;2.89;100.00
6395;BME280;3230;42.588;23.358;2024-02-14T03:45:27;90761.31;;;3.04;100.00
6395;BME280;3230;42.588;23.358;2024-02-14T03:47:55;90726.38;;;2.73;100.00
6395;BME280;3230;42.588;23.358;2024-02-14T03:50:20;90745.13;;;2.80;100.00
6395;BME280;3230;42.588;23.358;2024-02-14T03:52:46;90724.56;;;2.74;100.00
6395;BME280;3230;42.588;23.358;2024-02-14T03:55:13;90758.31;;;2.96;100.00
6395;BME280;3230;42.588;23.358;2024-02-14T03:57:39;90772.06;;;2.96;100.00
6395;BME280;3230;42.588;23.358;2024-02-14T04:00:05;90772.91;;;3.02;100.00
6395;BME280;3230;42.588;23.358;2024-02-14T04:02:35;90762.84;;;2.88;100.00
6395;BME280;3230;42.588;23.358;2024-02-14T04:05:01;90775.91;;;2.94;100.00
6395;BME280;3230;42.588;23.358;2024-02-14T04:07:27;90780.06;;;2.95;100.00
6395;BME280;3230;42.588;23.358;2024-02-14T04:09:53;90768.75;;;2.84;100.00
6395;BME280;3230;42.588;23.358;2024-02-14T04:12:18;90749.19;;;2.76;100.00
6395;BME280;3230;42.588;23.358;2024-02-14T04:14:44;90759.88;;;2.80;100.00
6395;BME280;3230;42.588;23.358;2024-02-14T04:17:09;90750.69;;;2.72;100.00
6395;BME280;3230;42.588;23.358;2024-02-14T04:19:36;90774.56;;;2.91;100.00
6395;BME280;3230;42.588;23.358;2024-02-14T04:22:02;90770.63;;;2.88;100.00
6395;BME280;3230;42.588;23.358;2024-02-14T04:24:27;90779.25;;;2.94;100.00
6395;BME280;3230;42.588;23.358;2024-02-14T04:26:53;90785.53;;;2.98;100.00
6395;BME280;3230;42.588;23.358;2024-02-14T04:29:20;90791.56;;;2.87;100.00
6395;BME280;3230;42.588;23.358;2024-02-14T04:31:46;90773.41;;;2.70;100.00
6395;BME280;3230;42.588;23.358;2024-02-14T04:34:11;90779.47;;;2.76;100.00
6395;BME280;3230;42.588;23.358;2024-02-14T04:36:38;90795.00;;;2.76;100.00
6395;BME280;3230;42.588;23.358;2024-02-14T04:39:05;90785.97;;;2.78;100.00
6395;BME280;3230;42.588;23.358;2024-02-14T04:41:30;90798.59;;;2.75;100.00
6395;BME280;3230;42.588;23.358;2024-02-14T04:43:56;90791.94;;;2.79;100.00
6395;BME280;3230;42.588;23.358;2024-02-14T04:46:21;90798.28;;;2.71;100.00
6395;BME280;3230;42.588;23.358;2024-02-14T04:48:47;90800.63;;;2.72;100.00
6395;BME280;3230;42.588;23.358;2024-02-14T04:51:13;90798.81;;;2.73;100.00
6395;BME280;3230;42.588;23.358;2024-02-14T04:53:39;90823.03;;;2.67;100.00
6395;BME280;3230;42.588;23.358;2024-02-14T04:56:04;90816.63;;;2.69;100.00
6395;BME280;3230;42.588;23.358;2024-02-14T04:58:29;90810.09;;;2.67;100.00
6395;BME280;3230;42.588;23.358;2024-02-14T05:00:55;90819.53;;;2.73;100.00
6395;BME280;3230;42.588;23.358;2024-02-14T05:03:20;90813.47;;;2.67;100.00
6395;BME280;3230;42.588;23.358;2024-02-14T05:05:46;90808.13;;;2.57;100.00
6395;BME280;3230;42.588;23.358;2024-02-14T05:08:12;90816.28;;;2.66;100.00
6395;BME280;3230;42.588;23.358;2024-02-14T05:10:37;90822.75;;;2.80;100.00
6395;BME280;3230;42.588;23.358;2024-02-14T05:13:03;90821.47;;;2.66;100.00
6395;BME280;3230;42.588;23.358;2024-02-14T05:15:28;90826.03;;;2.76;100.00
6395;BME280;3230;42.588;23.358;2024-02-14T05:17:54;90827.41;;;2.66;100.00
6395;BME280;3230;42.588;23.358;2024-02-14T05:20:21;90841.41;;;2.53;100.00
6395;BME280;3230;42.588;23.358;2024-02-14T05:22:47;90830.03;;;2.54;100.00
6395;BME280;3230;42.588;23.358;2024-02-14T05:25:12;90843.09;;;2.60;100.00
6395;BME280;3230;42.588;23.358;2024-02-14T05:27:39;90851.38;;;2.62;100.00
6395;BME280;3230;42.588;23.358;2024-02-14T05:30:05;90851.19;;;2.51;100.00
6395;BME280;3230;42.588;23.358;2024-02-14T05:32:33;90860.63;;;2.58;100.00
6395;BME280;3230;42.588;23.358;2024-02-14T05:34:59;90863.41;;;2.68;100.00
6395;BME280;3230;42.588;23.358;2024-02-14T05:37:24;90826.69;;;2.42;100.00
6395;BME280;3230;42.588;23.358;2024-02-14T05:39:53;90877.81;;;2.64;100.00
6395;BME280;3230;42.588;23.358;2024-02-14T05:42:18;90876.47;;;2.61;100.00
6395;BME280;3230;42.588;23.358;2024-02-14T05:44:44;90886.16;;;2.66;100.00
6395;BME280;3230;42.588;23.358;2024-02-14T05:47:09;90891.09;;;2.55;100.00
6395;BME280;3230;42.588;23.358;2024-02-14T05:49:40;90899.06;;;2.66;100.00
6395;BME280;3230;42.588;23.358;2024-02-14T05:52:08;90896.59;;;2.71;100.00
6395;BME280;3230;42.588;23.358;2024-02-14T05:54:34;90892.09;;;2.66;100.00
6395;BME280;3230;42.588;23.358;2024-02-14T05:57:00;90889.84;;;2.70;100.00
6395;BME280;3230;42.588;23.358;2024-02-14T05:59:27;90894.00;;;2.59;100.00
6395;BME280;3230;42.588;23.358;2024-02-14T06:01:52;90891.09;;;2.67;100.00
6395;BME280;3230;42.588;23.358;2024-02-14T06:04:18;90907.50;;;2.73;100.00
6395;BME280;3230;42.588;23.358;2024-02-14T06:06:44;90910.63;;;2.75;100.00
6395;BME280;3230;42.588;23.358;2024-02-14T06:09:09;90913.69;;;2.72;100.00
6395;BME280;3230;42.588;23.358;2024-02-14T06:11:36;90917.63;;;2.63;100.00
6395;BME280;3230;42.588;23.358;2024-02-14T06:14:05;90920.78;;;2.77;100.00
6395;BME280;3230;42.588;23.358;2024-02-14T06:16:31;90934.38;;;2.72;100.00
6395;BME280;3230;42.588;23.358;2024-02-14T06:18:57;90933.59;;;2.71;100.00
6395;BME280;3230;42.588;23.358;2024-02-14T06:21:22;90933.91;;;2.75;100.00
6395;BME280;3230;42.588;23.358;2024-02-14T06:23:47;90938.66;;;2.78;100.00
6395;BME280;3230;42.588;23.358;2024-02-14T06:26:13;90947.88;;;2.74;100.00
6395;BME280;3230;42.588;23.358;2024-02-14T06:28:39;90945.72;;;2.83;100.00
6395;BME280;3230;42.588;23.358;2024-02-14T06:31:05;90948.91;;;2.73;100.00
6395;BME280;3230;42.588;23.358;2024-02-14T06:33:30;90947.41;;;2.77;100.00
6395;BME280;3230;42.588;23.358;2024-02-14T06:35:56;90951.34;;;2.68;100.00
6395;BME280;3230;42.588;23.358;2024-02-14T06:38:21;90960.25;;;2.72;100.00
6395;BME280;3230;42.588;23.358;2024-02-14T06:40:47;90948.44;;;2.76;100.00
6395;BME280;3230;42.588;23.358;2024-02-14T06:43:12;90953.81;;;2.86;100.00
6395;BME280;3230;42.588;23.358;2024-02-14T06:45:38;90951.59;;;2.78;100.00
6395;BME280;3230;42.588;23.358;2024-02-14T06:48:04;90961.03;;;2.72;100.00
6395;BME280;3230;42.588;23.358;2024-02-14T06:50:29;90958.69;;;2.71;100.00
6395;BME280;3230;42.588;23.358;2024-02-14T06:52:55;90958.00;;;2.64;100.00
6395;BME280;3230;42.588;23.358;2024-02-14T06:55:25;90954.31;;;2.60;100.00
6395;BME280;3230;42.588;23.358;2024-02-14T06:57:51;90967.44;;;2.70;100.00
6395;BME280;3230;42.588;23.358;2024-02-14T07:00:16;90972.19;;;2.61;100.00
6395;BME280;3230;42.588;23.358;2024-02-14T07:02:42;90982.53;;;2.73;100.00
6395;BME280;3230;42.588;23.358;2024-02-14T07:05:08;90980.50;;;2.75;100.00
6395;BME280;3230;42.588;23.358;2024-02-14T07:07:37;90974.09;;;2.66;100.00
6395;BME280;3230;42.588;23.358;2024-02-14T07:10:04;90973.63;;;2.69;100.00
6395;BME280;3230;42.588;23.358;2024-02-14T07:12:31;90998.03;;;2.85;100.00
6395;BME280;3230;42.588;23.358;2024-02-14T07:14:57;90979.28;;;2.78;100.00
6395;BME280;3230;42.588;23.358;2024-02-14T07:17:22;90984.97;;;2.92;100.00
6395;BME280;3230;42.588;23.358;2024-02-14T07:19:48;90984.88;;;2.86;100.00
6395;BME280;3230;42.588;23.358;2024-02-14T07:22:17;90993.09;;;2.83;100.00
6395;BME280;3230;42.588;23.358;2024-02-14T07:24:44;90988.91;;;3.06;99.71
6395;BME280;3230;42.588;23.358;2024-02-14T07:27:12;90997.91;;;3.03;100.00
6395;BME280;3230;42.588;23.358;2024-02-14T07:29:38;90983.41;;;2.91;100.00
6395;BME280;3230;42.588;23.358;2024-02-14T07:32:03;90985.31;;;2.95;100.00
6395;BME280;3230;42.588;23.358;2024-02-14T07:34:29;90980.13;;;3.07;100.00
6395;BME280;3230;42.588;23.358;2024-02-14T07:36:54;90991.22;;;3.19;99.95
6395;BME280;3230;42.588;23.358;2024-02-14T07:39:19;90998.03;;;3.38;98.52
6395;BME280;3230;42.588;23.358;2024-02-14T07:41:45;90995.06;;;3.46;98.92
6395;BME280;3230;42.588;23.358;2024-02-14T07:44:11;90995.66;;;3.36;97.55
6395;BME280;3230;42.588;23.358;2024-02-14T07:46:37;90991.63;;;3.69;97.39
6395;BME280;3230;42.588;23.358;2024-02-14T07:49:02;91008.28;;;3.73;96.69
6395;BME280;3230;42.588;23.358;2024-02-14T07:51:29;91011.97;;;3.77;97.31
6395;BME280;3230;42.588;23.358;2024-02-14T07:53:59;91000.00;;;3.76;95.61
6395;BME280;3230;42.588;23.358;2024-02-14T07:56:24;90997.81;;;3.68;96.74
6395;BME280;3230;42.588;23.358;2024-02-14T07:58:49;91002.22;;;3.84;95.90
6395;BME280;3230;42.588;23.358;2024-02-14T08:01:15;90982.16;;;3.63;96.19
6395;BME280;3230;42.588;23.358;2024-02-14T08:03:40;90992.63;;;3.68;96.06
6395;BME280;3230;42.588;23.358;2024-02-14T08:06:06;91002.28;;;3.56;96.25
6395;BME280;3230;42.588;23.358;2024-02-14T08:08:31;91001.94;;;3.52;96.95
6395;BME280;3230;42.588;23.358;2024-02-14T08:10:57;90977.66;;;3.41;97.50
6395;BME280;3230;42.588;23.358;2024-02-14T08:13:22;91016.31;;;3.60;98.52
6395;BME280;3230;42.588;23.358;2024-02-14T08:15:48;91007.41;;;3.39;98.68
6395;BME280;3230;42.588;23.358;2024-02-14T08:18:14;91016.25;;;3.43;100.00
6395;BME280;3230;42.588;23.358;2024-02-14T08:20:48;91007.16;;;3.40;100.00
6395;BME280;3230;42.588;23.358;2024-02-14T08:23:13;91018.44;;;3.34;100.00
6395;BME280;3230;42.588;23.358;2024-02-14T08:25:39;91016.06;;;3.32;100.00
6395;BME280;3230;42.588;23.358;2024-02-14T08:28:06;91021.28;;;3.20;100.00
6395;BME280;3230;42.588;23.358;2024-02-14T08:30:33;91034.41;;;3.31;100.00
6395;BME280;3230;42.588;23.358;2024-02-14T08:32:58;91023.16;;;3.37;100.00
6395;BME280;3230;42.588;23.358;2024-02-14T08:35:24;91005.63;;;3.15;100.00
6395;BME280;3230;42.588;23.358;2024-02-14T08:37:49;91013.44;;;3.44;100.00
6395;BME280;3230;42.588;23.358;2024-02-14T08:40:15;91014.13;;;3.40;100.00
6395;BME280;3230;42.588;23.358;2024-02-14T08:42:40;91015.38;;;3.37;100.00
6395;BME280;3230;42.588;23.358;2024-02-14T08:45:06;91019.22;;;3.23;100.00
6395;BME280;3230;42.588;23.358;2024-02-14T08:47:31;91007.41;;;3.27;100.00
6395;BME280;3230;42.588;23.358;2024-02-14T08:49:57;91002.66;;;2.95;100.00
6395;BME280;3230;42.588;23.358;2024-02-14T08:52:22;91038.41;;;3.10;100.00
6395;BME280;3230;42.588;23.358;2024-02-14T08:54:48;91036.69;;;3.15;100.00
6395;BME280;3230;42.588;23.358;2024-02-14T08:57:13;91035.34;;;3.13;100.00
6395;BME280;3230;42.588;23.358;2024-02-14T08:59:39;91030.16;;;3.25;100.00
6395;BME280;3230;42.588;23.358;2024-02-14T09:02:05;91039.38;;;3.32;99.86
6395;BME280;3230;42.588;23.358;2024-02-14T09:04:31;91034.22;;;3.20;100.00
6395;BME280;3230;42.588;23.358;2024-02-14T09:06:56;91050.19;;;3.41;100.00
6395;BME280;3230;42.588;23.358;2024-02-14T09:09:21;91055.91;;;3.43;99.00
6395;BME280;3230;42.588;23.358;2024-02-14T09:11:47;91046.78;;;3.41;99.22
6395;BME280;3230;42.588;23.358;2024-02-14T09:14:12;91056.47;;;3.33;98.48
6395;BME280;3230;42.588;23.358;2024-02-14T09:16:38;91061.91;;;3.32;98.53
6395;BME280;3230;42.588;23.358;2024-02-14T09:19:04;91059.78;;;3.17;97.61
6395;BME280;3230;42.588;23.358;2024-02-14T09:21:33;91077.44;;;3.32;98.07
6395;BME280;3230;42.588;23.358;2024-02-14T09:23:59;91092.31;;;3.25;98.42
6395;BME280;3230;42.588;23.358;2024-02-14T09:26:25;91076.78;;;3.25;99.14
6395;BME280;3230;42.588;23.358;2024-02-14T09:28:51;91074.19;;;3.25;99.65
6395;BME280;3230;42.588;23.358;2024-02-14T09:31:21;91081.47;;;3.40;99.60
6395;BME280;3230;42.588;23.358;2024-02-14T09:33:49;91079.94;;;3.27;99.69
6395;BME280;3230;42.588;23.358;2024-02-14T09:36:15;91077.78;;;3.24;100.00
6395;BME280;3230;42.588;23.358;2024-02-14T09:38:42;91070.94;;;3.17;100.00
6395;BME280;3230;42.588;23.358;2024-02-14T09:43:45;91058.91;;;2.99;100.00
6395;BME280;3230;42.588;23.358;2024-02-14T09:46:14;91062.84;;;3.02;100.00
6395;BME280;3230;42.588;23.358;2024-02-14T09:48:46;91083.19;;;3.10;100.00
6395;BME280;3230;42.588;23.358;2024-02-14T09:51:12;91067.91;;;3.20;100.00
6395;BME280;3230;42.588;23.358;2024-02-14T09:53:40;91072.63;;;3.12;100.00
6395;BME280;3230;42.588;23.358;2024-02-14T09:56:09;91061.94;;;2.84;100.00
6395;BME280;3230;42.588;23.358;2024-02-14T09:58:35;91069.59;;;3.03;100.00
6395;BME280;3230;42.588;23.358;2024-02-14T10:01:02;91075.66;;;2.97;100.00
6395;BME280;3230;42.588;23.358;2024-02-14T10:03:27;91056.34;;;2.87;100.00
6395;BME280;3230;42.588;23.358;2024-02-14T10:05:53;91072.41;;;3.01;99.89
6395;BME280;3230;42.588;23.358;2024-02-14T10:08:18;91078.84;;;2.99;100.00
6395;BME280;3230;42.588;23.358;2024-02-14T10:10:45;91079.50;;;3.06;100.00
6395;BME280;3230;42.588;23.358;2024-02-14T10:13:11;91069.59;;;3.03;100.00
6395;BME280;3230;42.588;23.358;2024-02-14T10:15:36;91082.66;;;3.08;100.00
6395;BME280;3230;42.588;23.358;2024-02-14T10:18:02;91062.38;;;3.05;99.72
6395;BME280;3230;42.588;23.358;2024-02-14T10:20:28;91081.63;;;3.09;98.95
6395;BME280;3230;42.588;23.358;2024-02-14T10:23:02;91084.69;;;3.06;99.56
6395;BME280;3230;42.588;23.358;2024-02-14T10:25:29;91089.38;;;3.09;98.58
6395;BME280;3230;42.588;23.358;2024-02-14T10:27:54;91079.72;;;2.93;99.32
6395;BME280;3230;42.588;23.358;2024-02-14T10:30:20;91079.41;;;3.01;99.00
6395;BME280;3230;42.588;23.358;2024-02-14T10:32:47;91083.91;;;2.94;99.12
6395;BME280;3230;42.588;23.358;2024-02-14T10:35:14;91080.19;;;3.01;98.82
6395;BME280;3230;42.588;23.358;2024-02-14T10:37:40;91080.84;;;2.97;98.42
6395;BME280;3230;42.588;23.358;2024-02-14T10:40:06;91074.91;;;2.84;98.77
6395;BME280;3230;42.588;23.358;2024-02-14T10:42:33;91078.50;;;2.83;99.70
6395;BME280;3230;42.588;23.358;2024-02-14T10:44:59;91069.38;;;2.81;99.56
6395;BME280;3230;42.588;23.358;2024-02-14T10:47:35;91058.59;;;2.84;99.26
6395;BME280;3230;42.588;23.358;2024-02-14T10:50:06;91070.16;;;2.93;98.82
6395;BME280;3230;42.588;23.358;2024-02-14T10:52:35;91079.72;;;2.93;97.94
6395;BME280;3230;42.588;23.358;2024-02-14T10:55:03;91070.72;;;2.95;97.89
6395;BME280;3230;42.588;23.358;2024-02-14T10:57:29;91071.41;;;2.91;98.11
6395;BME280;3230;42.588;23.358;2024-02-14T10:59:57;91067.03;;;2.91;98.56
6395;BME280;3230;42.588;23.358;2024-02-14T11:02:29;91080.97;;;2.90;98.70
6395;BME280;3230;42.588;23.358;2024-02-14T11:04:58;91085.47;;;2.95;98.52
6395;BME280;3230;42.588;23.358;2024-02-14T11:07:28;91082.91;;;2.95;98.12
6395;BME280;3230;42.588;23.358;2024-02-14T11:10:05;91079.16;;;3.02;98.40
6395;BME280;3230;42.588;23.358;2024-02-14T11:12:33;91078.25;;;3.09;98.14
6395;BME280;3230;42.588;23.358;2024-02-14T11:15:01;91080.06;;;2.96;98.86
6395;BME280;3230;42.588;23.358;2024-02-14T11:17:26;91072.41;;;3.01;98.64
6395;BME280;3230;42.588;23.358;2024-02-14T11:19:53;91063.28;;;2.99;98.65
6395;BME280;3230;42.588;23.358;2024-02-14T11:22:19;91069.00;;;3.13;98.31
6395;BME280;3230;42.588;23.358;2024-02-14T11:24:46;91069.16;;;3.06;97.89
6395;BME280;3230;42.588;23.358;2024-02-14T11:27:12;91068.13;;;3.07;97.86
6395;BME280;3230;42.588;23.358;2024-02-14T11:29:50;91075.34;;;3.05;97.21
6395;BME280;3230;42.588;23.358;2024-02-14T11:32:17;91073.41;;;3.12;97.10
6395;BME280;3230;42.588;23.358;2024-02-14T11:34:43;91075.78;;;3.14;96.94
6395;BME280;3230;42.588;23.358;2024-02-14T11:37:09;91077.00;;;3.11;97.67
6395;BME280;3230;42.588;23.358;2024-02-14T11:39:35;91060.94;;;2.97;97.24
6395;BME280;3230;42.588;23.358;2024-02-14T11:42:00;91075.34;;;3.05;97.95
6395;BME280;3230;42.588;23.358;2024-02-14T11:44:25;91071.41;;;3.14;98.16
6395;BME280;3230;42.588;23.358;2024-02-14T11:46:51;91074.00;;;3.14;99.19
6395;BME280;3230;42.588;23.358;2024-02-14T11:49:17;91056.31;;;3.11;98.16
6395;BME280;3230;42.588;23.358;2024-02-14T11:51:43;91068.31;;;3.29;97.77
6395;BME280;3230;42.588;23.358;2024-02-14T11:54:09;91051.88;;;3.24;97.17
6395;BME280;3230;42.588;23.358;2024-02-14T11:56:38;91052.47;;;3.26;97.00
6395;BME280;3230;42.588;23.358;2024-02-14T11:59:06;91063.16;;;3.29;97.68
6395;BME280;3230;42.588;23.358;2024-02-14T12:01:34;91065.84;;;3.23;97.26
6395;BME280;3230;42.588;23.358;2024-02-14T12:04:00;91069.81;;;3.13;96.16
6395;BME280;3230;42.588;23.358;2024-02-14T12:06:29;91070.03;;;3.12;96.19
6395;BME280;3230;42.588;23.358;2024-02-14T12:09:02;91067.91;;;3.20;95.75
6395;BME280;3230;42.588;23.358;2024-02-14T12:11:33;91068.56;;;3.28;96.13
6395;BME280;3230;42.588;23.358;2024-02-14T12:14:02;91057.88;;;3.12;97.16
6395;BME280;3230;42.588;23.358;2024-02-14T12:16:28;91071.25;;;3.33;96.00
6395;BME280;3230;42.588;23.358;2024-02-14T12:19:13;91073.28;;;3.31;96.24
6395;BME280;3230;42.588;23.358;2024-02-14T12:21:41;91059.63;;;3.35;95.87
6395;BME280;3230;42.588;23.358;2024-02-14T12:24:07;91072.34;;;3.37;95.54
6395;BME280;3230;42.588;23.358;2024-02-14T12:26:34;91058.47;;;3.55;94.18
6395;BME280;3230;42.588;23.358;2024-02-14T12:29:07;91054.28;;;3.54;94.14
6395;BME280;3230;42.588;23.358;2024-02-14T12:31:33;91063.31;;;3.51;93.71
6395;BME280;3230;42.588;23.358;2024-02-14T12:34:00;91060.88;;;3.45;94.42
6395;BME280;3230;42.588;23.358;2024-02-14T12:36:30;91052.63;;;3.48;93.57
6395;BME280;3230;42.588;23.358;2024-02-14T12:38:56;91066.81;;;3.45;92.79
6395;BME280;3230;42.588;23.358;2024-02-14T12:41:21;91064.91;;;3.52;92.47
6395;BME280;3230;42.588;23.358;2024-02-14T12:43:49;91057.22;;;3.58;92.70
6395;BME280;3230;42.588;23.358;2024-02-14T12:46:14;91079.28;;;3.60;93.19
6395;BME280;3230;42.588;23.358;2024-02-14T12:48:40;91062.38;;;3.70;91.96
6395;BME280;3230;42.588;23.358;2024-02-14T12:51:16;91075.91;;;3.60;92.02
6395;BME280;3230;42.588;23.358;2024-02-14T12:53:41;91085.28;;;3.61;92.27
6395;BME280;3230;42.588;23.358;2024-02-14T12:56:07;91092.25;;;3.60;92.04
6395;BME280;3230;42.588;23.358;2024-02-14T12:58:33;91093.16;;;3.54;92.88
6395;BME280;3230;42.588;23.358;2024-02-14T13:00:58;91081.53;;;3.57;92.26
6395;BME280;3230;42.588;23.358;2024-02-14T13:03:24;91085.41;;;3.42;93.08
6395;BME280;3230;42.588;23.358;2024-02-14T13:05:50;91099.00;;;3.61;92.60
6395;BME280;3230;42.588;23.358;2024-02-14T13:08:18;91098.34;;;3.54;93.28
6395;BME280;3230;42.588;23.358;2024-02-14T13:10:44;91101.16;;;3.52;92.98
6395;BME280;3230;42.588;23.358;2024-02-14T13:13:09;91103.84;;;3.58;93.30